Time;durP1;ratioP1;P1;durP2;ratioP2;P2;SDS_P1;SDS_P2;PMS_P1;PMS_P2;Temp;Humidity;BMP_temperature;BMP_pressure;BME280_temperature;BME280_humidity;BME280_pressure;Samples;Min_cycle;Max_cycle;Signal;HPM_P1;HPM_P2
2022/02/03 00:04:21;;;;;;;32.80;9.15;;;;;;;8.33;92.23;101976.66;5030719;28;20037;-43
2022/02/03 00:07:01;;;;;;;26.55;8.82;;;;;;;8.32;91.86;101974.97;5033405;28;20402;-44
2022/02/03 00:27:40;;;;;;;40.50;11.70;;;;;;;8.02;93.26;101978.56;5030065;28;20401;-44
2022/02/03 00:30:11;;;;;;;37.80;11.77;;;;;;;7.98;93.30;101977.16;5032268;28;20049;-43
2022/02/03 00:48:44;;;;;;;42.85;13.88;;;;;;;7.96;93.88;101946.97;5034158;28;20039;-44
2022/02/03 00:51:10;;;;;;;43.10;12.95;;;;;;;7.98;94.07;101946.81;5032747;28;20128;-41
2022/02/03 00:53:36;;;;;;;48.95;12.93;;;;;;;7.95;94.16;101947.94;5031566;28;20143;-43
2022/02/03 00:56:09;;;;;;;58.22;14.93;;;;;;;7.91;94.11;101936.63;5034285;28;20036;-44
2022/02/03 00:58:40;;;;;;;38.45;13.45;;;;;;;7.88;94.17;101944.13;5033622;28;20041;-44
2022/02/03 01:01:06;;;;;;;47.20;13.50;;;;;;;7.90;94.59;101936.81;5032296;28;20128;-44
2022/02/03 01:03:32;;;;;;;47.90;13.65;;;;;;;7.88;94.49;101950.31;5033791;28;20113;-45
2022/02/03 01:05:59;;;;;;;68.82;14.40;;;;;;;7.90;94.60;101944.84;5032003;28;20116;-42
2022/02/03 01:08:26;;;;;;;52.28;15.38;;;;;;;7.86;94.41;101935.38;5033251;28;20033;-44
2022/02/03 01:11:03;;;;;;;55.90;15.77;;;;;;;7.88;94.45;101946.81;5033746;28;20074;-44
2022/02/03 01:13:41;;;;;;;61.20;16.27;;;;;;;7.87;94.39;101942.41;5033869;28;20048;-43
2022/02/03 01:19:11;;;;;;;60.63;19.70;;;;;;;7.85;94.77;101928.31;5033714;28;20102;-43
2022/02/03 01:36:56;;;;;;;63.35;20.30;;;;;;;7.84;94.34;101908.69;5032147;28;20059;-44
2022/02/03 01:43:28;;;;;;;62.67;18.15;;;;;;;7.80;94.20;101895.72;5015434;28;20041;-42
2022/02/03 01:45:59;;;;;;;53.25;18.27;;;;;;;7.76;94.55;101891.59;5032866;28;20029;-44
2022/02/03 01:48:51;;;;;;;54.08;19.00;;;;;;;7.75;94.25;101892.59;5031506;28;20079;-44
2022/02/03 01:54:04;;;;;;;58.78;17.50;;;;;;;7.75;94.28;101897.97;5021187;28;20049;-43
2022/02/03 01:56:50;;;;;;;56.10;17.33;;;;;;;7.75;94.31;101890.78;5031710;28;20396;-44
2022/02/03 01:59:21;;;;;;;61.25;16.48;;;;;;;7.77;94.25;101898.69;5032086;28;20436;-42
2022/02/03 02:01:49;;;;;;;45.30;13.73;;;;;;;7.73;93.91;101899.94;5032655;28;20025;-42
2022/02/03 02:04:35;;;;;;;64.53;14.23;;;;;;;7.76;94.03;101896.97;5030913;28;20060;-42
2022/02/03 02:07:42;;;;;;;45.10;14.15;;;;;;;7.77;93.69;101904.88;5032930;28;20041;-42
2022/02/03 02:10:57;;;;;;;47.85;12.13;;;;;;;7.75;93.52;101896.13;5032402;28;20037;-43
2022/02/03 02:13:50;;;;;;;48.85;11.48;;;;;;;7.79;93.59;101907.41;5030499;28;20520;-41
2022/02/03 02:38:56;;;;;;;36.92;6.45;;;;;;;7.65;92.47;101831.78;5029911;28;20571;-46
2022/02/03 02:44:07;;;;;;;31.23;5.80;;;;;;;7.66;92.34;101809.38;5031939;28;20110;-43
2022/02/03 02:46:35;;;;;;;24.70;5.55;;;;;;;7.68;92.07;101819.94;5010342;28;20026;-43
2022/02/03 02:49:28;;;;;;;32.78;6.18;;;;;;;7.69;91.83;101811.78;5017554;28;20025;-43
2022/02/03 02:52:02;;;;;;;32.38;6.05;;;;;;;7.72;91.65;101793.75;5031947;28;20490;-43
2022/02/03 02:57:43;;;;;;;42.30;6.78;;;;;;;7.75;91.34;101790.78;5032587;28;20036;-45
2022/02/03 03:31:22;;;;;;;22.50;4.30;;;;;;;7.88;87.89;101713.63;5031544;28;20064;-44
2022/02/03 03:36:13;;;;;;;31.83;4.57;;;;;;;7.86;87.82;101724.47;5031471;28;20053;-42
2022/02/03 03:38:41;;;;;;;18.95;4.13;;;;;;;7.86;87.71;101715.59;5012370;28;20088;-41
2022/02/03 03:41:07;;;;;;;21.05;4.13;;;;;;;7.84;87.65;101717.56;5031332;28;20030;-43
2022/02/03 03:43:33;;;;;;;20.90;4.20;;;;;;;7.87;87.66;101714.59;5031608;28;20443;-44
2022/02/03 03:46:11;;;;;;;18.85;3.70;;;;;;;7.83;87.94;101711.38;5030993;28;20029;-42
2022/02/03 03:48:49;;;;;;;23.33;4.15;;;;;;;7.82;87.69;101715.03;5031064;28;20025;-41
2022/02/03 03:51:15;;;;;;;20.10;4.43;;;;;;;7.82;87.70;101728.44;5029295;28;20049;-43
2022/02/03 03:53:58;;;;;;;25.15;4.07;;;;;;;7.81;87.81;101709.81;5031298;28;20112;-43
2022/02/03 03:56:36;;;;;;;16.20;3.30;;;;;;;7.82;87.50;101714.16;5011608;28;20423;-44
2022/02/03 04:32:02;;;;;;;23.55;4.50;;;;;;;7.75;87.28;101676.41;5033826;28;20052;-42
2022/02/03 04:42:35;;;;;;;27.15;5.82;;;;;;;7.64;88.00;101669.34;5034264;28;20041;-44
2022/02/03 04:51:29;;;;;;;19.65;5.97;;;;;;;7.62;87.77;101676.69;5032837;28;20212;-45
2022/02/03 05:12:35;;;;;;;16.45;4.75;;;;;;;7.47;88.76;101646.78;5032137;28;20183;-43
2022/02/03 05:24:36;;;;;;;19.58;5.03;;;;;;;7.45;88.25;101621.13;5033418;28;20036;-43
2022/02/03 05:33:18;;;;;;;17.15;3.97;;;;;;;7.36;88.57;101606.78;5029473;28;20064;-44
2022/02/03 05:42:24;;;;;;;17.63;4.57;;;;;;;7.33;88.72;101590.16;5033837;28;20103;-44
2022/02/03 05:48:17;;;;;;;15.55;4.78;;;;;;;7.32;88.49;101583.09;5020312;28;20106;-43
2022/02/03 06:07:17;;;;;;;16.88;4.10;;;;;;;7.38;88.53;101555.78;5032861;28;20111;-42
2022/02/03 06:15:01;;;;;;;23.65;5.45;;;;;;;7.32;88.39;101562.56;5032010;28;20040;-42
2022/02/03 06:22:50;;;;;;;16.13;5.57;;;;;;;7.33;88.50;101552.69;5030303;28;20049;-43
2022/02/03 06:27:46;;;;;;;;;;;;;;;7.26;88.52;101541.69;5032330;28;20045;-44
2022/02/03 06:30:19;;;;;;;17.70;5.57;;;;;;;7.28;88.53;101538.88;5031604;28;20352;-44
2022/02/03 06:32:45;;;;;;;17.38;4.90;;;;;;;7.27;88.48;101538.03;5032443;28;20124;-43
2022/02/03 06:35:12;;;;;;;18.30;5.05;;;;;;;7.26;88.22;101531.81;5030893;28;20116;-43
2022/02/03 06:37:38;;;;;;;17.77;5.50;;;;;;;7.28;88.20;101509.41;5031151;28;20037;-43
2022/02/03 06:40:06;;;;;;;13.52;4.95;;;;;;;7.25;88.06;101506.03;5031953;28;20535;-44
2022/02/03 06:42:32;;;;;;;14.50;4.57;;;;;;;7.25;88.01;101503.34;5031339;28;20466;-42
2022/02/03 06:45:00;;;;;;;21.05;5.28;;;;;;;7.21;88.04;101499.28;5031697;28;20018;-43
2022/02/03 06:47:32;;;;;;;;;;;;;;;7.20;88.01;101513.66;5031853;28;20044;-43
2022/02/03 06:52:49;;;;;;;18.27;5.55;;;;;;;7.24;88.02;101514.19;5030113;28;20424;-42
2022/02/03 06:57:46;;;;;;;20.15;7.20;;;;;;;7.26;87.40;101507.72;5029455;28;20109;-43
2022/02/03 07:00:27;;;;;;;21.45;5.63;;;;;;;7.25;87.66;101518.59;5031819;28;20072;-42
2022/02/03 07:02:55;;;;;;;15.95;5.95;;;;;;;7.18;87.49;101523.66;5030898;28;20025;-42
2022/02/03 07:05:22;;;;;;;24.85;6.15;;;;;;;7.23;87.47;101516.03;5030968;28;20041;-43
2022/02/03 07:07:47;;;;;;;17.83;4.97;;;;;;;7.20;87.36;101521.69;5030287;28;20075;-44
2022/02/03 07:10:13;;;;;;;26.63;6.13;;;;;;;7.20;87.66;101510.97;5029719;28;20030;-43
2022/02/03 07:12:39;;;;;;;23.48;6.63;;;;;;;7.22;87.44;101516.19;5038114;28;20497;-41
2022/02/03 07:15:06;;;;;;;18.58;6.90;;;;;;;7.21;87.36;101515.34;5025402;28;20045;-41
2022/02/03 07:17:33;;;;;;;20.08;7.57;;;;;;;7.21;87.48;101503.78;5028004;28;20053;-42
2022/02/03 07:20:02;;;;;;;16.35;6.93;;;;;;;7.21;87.81;101512.69;5031606;28;20068;-42
2022/02/03 07:22:28;;;;;;;24.50;8.27;;;;;;;7.17;87.81;101499.72;5027270;28;20026;-44
2022/02/03 07:24:53;;;;;;;24.30;7.63;;;;;;;7.16;87.80;101490.84;5031249;28;20076;-43
2022/02/03 07:27:23;;;;;;;37.10;8.23;;;;;;;7.10;88.19;101483.38;5028995;28;20097;-42
2022/02/03 07:29:49;;;;;;;19.77;8.20;;;;;;;7.06;88.29;101486.47;5029290;28;20030;-44
2022/02/03 07:32:15;;;;;;;26.73;9.23;;;;;;;7.07;88.51;101486.34;5030452;28;20029;-42
2022/02/03 07:34:40;;;;;;;23.20;8.65;;;;;;;7.06;88.86;101476.63;5028121;28;20056;-43
2022/02/03 07:37:06;;;;;;;18.20;8.23;;;;;;;7.05;88.83;101496.34;5031489;28;20060;-43
2022/02/03 07:39:34;;;;;;;28.30;8.90;;;;;;;7.06;88.70;101498.03;5030590;28;20021;-44
2022/02/03 07:41:59;;;;;;;31.40;9.43;;;;;;;7.08;89.00;101493.38;5031048;28;20478;-42
2022/02/03 07:44:25;;;;;;;29.13;9.63;;;;;;;7.10;89.22;101494.09;5020865;28;20077;-42
2022/02/03 07:46:51;;;;;;;27.55;10.82;;;;;;;7.13;88.92;101504.50;5030494;28;20033;-44
2022/02/03 07:49:17;;;;;;;19.45;9.95;;;;;;;7.13;89.08;101509.84;5030614;28;20089;-43
2022/02/03 07:51:42;;;;;;;23.40;10.43;;;;;;;7.07;89.33;101489.03;5034325;28;20033;-42
2022/02/03 07:54:09;;;;;;;28.65;11.18;;;;;;;7.13;89.66;101491.13;5033380;28;20551;-42
2022/02/03 07:56:35;;;;;;;22.77;10.43;;;;;;;7.09;89.91;101481.69;5034201;28;20405;-42
2022/02/03 07:59:00;;;;;;;19.38;10.02;;;;;;;7.07;89.98;101490.84;5034506;28;20033;-41
2022/02/03 08:01:26;;;;;;;24.67;10.90;;;;;;;6.97;91.11;101489.03;5031563;28;20033;-45
2022/02/03 08:03:51;;;;;;;28.48;10.85;;;;;;;6.94;91.77;101493.81;5026897;28;20048;-44
2022/02/03 08:06:23;;;;;;;19.05;11.15;;;;;;;6.90;92.88;101487.06;5034240;28;20034;-44
2022/02/03 08:09:02;;;;;;;26.02;11.40;;;;;;;6.78;94.75;101489.88;5032769;28;20048;-43
2022/02/03 08:11:34;;;;;;;27.65;11.73;;;;;;;6.77;95.98;101485.53;5034329;28;20053;-43
2022/02/03 08:14:13;;;;;;;26.80;11.27;;;;;;;6.72;96.44;101482.44;5034077;28;20034;-44
2022/02/03 08:16:48;;;;;;;33.60;16.75;;;;;;;6.63;97.55;101477.91;5033456;28;20048;-43
2022/02/03 08:19:21;;;;;;;19.80;11.15;;;;;;;6.55;98.73;101480.44;5033370;28;20025;-44
2022/02/03 08:21:55;;;;;;;19.95;11.30;;;;;;;6.56;99.45;101482.16;5033687;28;20029;-44
2022/02/03 08:24:27;;;;;;;20.60;12.27;;;;;;;6.56;99.74;101468.78;5034321;28;20104;-48
2022/02/03 08:27:11;;;;;;;21.92;12.82;;;;;;;6.48;100.00;101455.28;5033899;28;20056;-45
2022/02/03 08:30:04;;;;;;;26.50;12.02;;;;;;;6.43;99.98;101452.19;5034605;28;20029;-43
2022/02/03 08:32:22;;;;;;;22.70;13.25;;;;;;;6.40;99.99;101447.09;5026959;28;20029;-43
2022/02/03 08:35:19;;;;;;;28.77;13.98;;;;;;;6.44;100.00;101445.84;5033500;28;20025;-44
2022/02/03 08:40:13;;;;;;;27.90;15.38;;;;;;;6.40;100.00;101437.25;5033686;28;20037;-43
2022/02/03 08:42:39;;;;;;;27.63;16.08;;;;;;;6.41;100.00;101438.09;5031733;28;20029;-44
2022/02/03 08:45:05;;;;;;;32.88;17.27;;;;;;;6.40;100.00;101449.75;5033424;28;20028;-46
2022/02/03 08:47:30;;;;;;;39.72;18.88;;;;;;;6.42;100.00;101434.41;5029066;28;20108;-44
2022/02/03 08:49:56;;;;;;;40.17;20.13;;;;;;;6.47;100.00;101434.84;5033366;28;20410;-45
2022/02/03 08:52:31;;;;;;;35.00;19.00;;;;;;;6.49;100.00;101441.75;5033288;28;20022;-46
2022/02/03 08:55:07;;;;;;;38.22;19.02;;;;;;;6.50;100.00;101445.25;5026535;28;20109;-45
2022/02/03 08:57:48;;;;;;;36.75;18.80;;;;;;;6.48;100.00;101452.59;5033308;28;20068;-44
2022/02/03 09:00:38;;;;;;;34.90;16.50;;;;;;;6.43;100.00;101452.19;5033274;28;20037;-44
2022/02/03 09:32:17;;;;;;;32.97;16.30;;;;;;;6.27;100.00;101461.59;5033180;28;20049;-47
2022/02/03 09:54:50;;;;;;;30.23;14.65;;;;;;;6.26;100.00;101443.00;5031865;28;20075;-50
2022/02/03 09:57:37;;;;;;;32.10;15.45;;;;;;;6.30;100.00;101445.25;5031767;28;20025;-47
2022/02/03 10:00:33;;;;;;;29.20;16.17;;;;;;;6.33;100.00;101425.41;5030614;28;20048;-48
2022/02/03 10:03:03;;;;;;;28.65;15.52;;;;;;;6.34;100.00;101427.94;5030688;28;20033;-47
2022/02/03 10:05:37;;;;;;;30.55;16.05;;;;;;;6.36;100.00;101423.31;5030268;28;20393;-48
2022/02/03 10:08:03;;;;;;;33.53;15.25;;;;;;;6.45;100.00;101428.78;5023315;28;20079;-48
2022/02/03 10:10:29;;;;;;;26.92;14.23;;;;;;;6.37;100.00;101433.03;5031395;28;20033;-46
2022/02/03 10:12:54;;;;;;;30.02;13.98;;;;;;;6.37;100.00;101435.72;5027704;28;20033;-46
2022/02/03 10:15:21;;;;;;;25.63;14.05;;;;;;;6.35;100.00;101434.16;5032049;28;20021;-45
2022/02/03 10:17:48;;;;;;;24.23;14.05;;;;;;;6.34;100.00;101437.78;5030899;28;20060;-46
2022/02/03 10:20:17;;;;;;;34.25;14.68;;;;;;;6.38;100.00;101433.88;5031829;28;20061;-46
2022/02/03 10:23:05;;;;;;;34.38;15.93;;;;;;;6.38;100.00;101420.50;5036438;28;20068;-45
2022/02/03 10:25:38;;;;;;;33.05;15.02;;;;;;;6.40;100.00;101425.69;5035517;28;20076;-46
2022/02/03 10:28:11;;;;;;;24.55;13.23;;;;;;;6.37;100.00;101426.81;5032567;28;20537;-48
2022/02/03 10:30:56;;;;;;;31.35;14.70;;;;;;;6.38;100.00;101431.19;5031569;28;20028;-47
2022/02/03 10:33:37;;;;;;;29.77;14.65;;;;;;;6.37;100.00;101410.78;5029269;28;20029;-45
2022/02/03 10:36:17;;;;;;;32.50;14.50;;;;;;;6.33;100.00;101415.56;5027512;28;20112;-47
2022/02/03 10:39:16;;;;;;;30.95;14.27;;;;;;;6.35;100.00;101429.66;5022292;28;20041;-48
2022/02/03 10:42:22;;;;;;;32.90;14.38;;;;;;;6.42;100.00;101407.69;5031480;28;20029;-46
2022/02/03 11:05:51;;;;;;;35.13;14.15;;;;;;;6.44;100.00;101384.34;5031993;28;20037;-46
2022/02/03 11:11:14;;;;;;;32.47;13.82;;;;;;;6.49;100.00;101380.25;5021241;28;20044;-44
2022/02/03 11:13:39;;;;;;;27.27;13.13;;;;;;;6.55;99.80;101377.00;5029513;28;20040;-44
2022/02/03 11:16:06;;;;;;;33.85;14.13;;;;;;;6.65;99.85;101366.28;5044305;28;20033;-46
2022/02/03 11:18:32;;;;;;;42.28;15.10;;;;;;;6.78;99.97;101360.63;5029742;28;20025;-46
2022/02/03 11:20:59;;;;;;;33.33;13.75;;;;;;;6.77;99.04;101354.44;5031172;28;20099;-47
2022/02/03 11:26:03;;;;;;;26.35;12.48;;;;;;;6.90;97.96;101353.25;5031570;28;20076;-45
2022/02/03 11:40:28;;;;;;;26.40;12.05;;;;;;;6.90;96.66;101337.22;5036285;28;20120;-45
2022/02/03 11:48:46;;;;;;;28.80;13.52;;;;;;;6.89;96.77;101330.19;5033312;28;20505;-45
2022/02/03 11:57:28;;;;;;;28.08;12.82;;;;;;;6.82;96.78;101329.94;5029461;28;20041;-45
2022/02/03 12:00:33;;;;;;;24.55;13.10;;;;;;;6.81;96.91;101326.41;5035251;28;20081;-47
2022/02/03 12:03:13;;;;;;;29.17;14.02;;;;;;;6.84;97.54;101321.75;5035034;28;20060;-45
2022/02/03 12:06:12;;;;;;;24.23;12.23;;;;;;;6.91;97.63;101328.22;5034268;28;20034;-46
2022/02/03 12:19:34;;;;;;;19.92;11.25;;;;;;;6.84;96.88;101311.06;5031300;28;20046;-45
2022/02/03 12:25:22;;;;;;;21.17;11.75;;;;;;;6.80;95.88;101295.28;5024285;28;20033;-47
2022/02/03 12:28:05;;;;;;;21.23;11.90;;;;;;;6.91;95.92;101293.44;5033710;28;20060;-46
2022/02/03 12:30:40;;;;;;;21.65;10.82;;;;;;;7.01;95.27;101291.56;5032471;28;20037;-45
2022/02/03 12:38:35;;;;;;;17.90;10.20;;;;;;;6.98;94.71;101284.66;5022909;28;20440;-46
2022/02/03 12:41:08;;;;;;;20.83;10.43;;;;;;;6.86;95.00;101287.69;5033180;28;20104;-44
2022/02/03 12:43:37;;;;;;;21.65;10.50;;;;;;;6.88;95.72;101288.38;5032768;28;20358;-44
2022/02/03 12:46:04;;;;;;;25.38;11.07;;;;;;;6.78;95.62;101291.91;5033572;28;20037;-45
2022/02/03 12:48:32;;;;;;;24.73;12.13;;;;;;;6.81;96.91;101291.63;5033307;28;20441;-47
2022/02/03 12:50:58;;;;;;;29.73;12.05;;;;;;;6.75;97.48;101284.19;5032466;28;20122;-44
2022/02/03 12:53:35;;;;;;;25.73;12.52;;;;;;;6.77;97.99;101284.91;5033563;28;20127;-45
2022/02/03 12:56:05;;;;;;;32.72;13.70;;;;;;;6.73;98.09;101275.47;5033534;28;20034;-45
2022/02/03 12:58:38;;;;;;;30.08;13.20;;;;;;;6.72;98.22;101262.25;5033331;28;20040;-46
2022/02/03 13:01:11;;;;;;;24.83;13.68;;;;;;;6.71;98.73;101269.41;5033361;28;20041;-47
2022/02/03 13:03:43;;;;;;;24.60;13.90;;;;;;;6.65;98.46;101270.00;5033391;28;20033;-44
2022/02/03 13:06:18;;;;;;;24.65;13.13;;;;;;;6.67;98.80;101268.03;5029616;28;20037;-47
2022/02/03 13:08:50;;;;;;;32.25;13.77;;;;;;;6.60;98.83;101261.56;5033225;28;20037;-45
2022/02/03 13:16:29;;;;;;;28.33;14.00;;;;;;;6.63;98.71;101255.91;5032365;28;20095;-47
2022/02/03 13:19:19;;;;;;;26.52;13.30;;;;;;;6.74;99.10;101257.56;5032380;28;20025;-45
2022/02/03 13:24:37;;;;;;;27.30;13.95;;;;;;;6.76;98.79;101244.91;5032569;28;21718;-45
2022/02/03 13:27:00;;;;;;;34.75;13.45;;;;;;;6.78;98.39;101246.44;5014078;28;20038;-43
2022/02/03 13:29:33;;;;;;;27.08;13.23;;;;;;;6.74;98.23;101247.75;5033278;28;20040;-46
2022/02/03 13:32:10;;;;;;;38.75;14.98;;;;;;;6.73;98.29;101240.69;5027287;28;20061;-48
2022/02/03 13:34:48;;;;;;;32.15;15.25;;;;;;;6.72;98.44;101239.00;5032746;28;20424;-43
2022/02/03 13:39:45;;;;;;;30.15;12.82;;;;;;;6.66;98.37;101234.25;5031614;28;20295;-45
2022/02/03 13:42:12;;;;;;;31.67;13.77;;;;;;;6.66;98.25;101230.72;5030847;28;20083;-43
2022/02/03 13:44:37;;;;;;;33.60;13.93;;;;;;;6.70;98.69;101222.25;5032387;28;20067;-44
2022/02/03 13:47:28;;;;;;;33.47;14.52;;;;;;;6.77;98.58;101220.69;5030683;28;20065;-44
2022/02/03 13:50:21;;;;;;;29.30;14.05;;;;;;;6.72;97.84;101230.16;5031259;28;20049;-45
2022/02/03 13:52:52;;;;;;;27.75;13.73;;;;;;;6.72;97.98;101231.00;5031673;28;20481;-45
2022/02/03 14:17:52;;;;;;;30.48;12.50;;;;;;;6.89;97.21;101202.59;5026771;28;20033;-44
2022/02/03 14:23:00;;;;;;;31.25;14.32;;;;;;;6.99;97.20;101202.56;5032050;28;20379;-46
2022/02/03 14:28:10;;;;;;;34.83;13.20;;;;;;;6.99;97.20;101197.19;5025016;28;20697;-43
2022/02/03 14:30:43;;;;;;;37.53;13.40;;;;;;;7.05;96.95;101196.59;5021850;28;20033;-42
2022/02/03 14:33:10;;;;;;;26.75;12.73;;;;;;;7.06;97.18;101181.38;5031475;28;20137;-43
2022/02/03 14:35:36;;;;;;;36.10;12.68;;;;;;;7.10;96.71;101190.78;5030228;28;20021;-45
2022/02/03 14:38:13;;;;;;;33.28;12.73;;;;;;;7.18;96.86;101197.06;5030893;28;20176;-45
2022/02/03 14:40:56;;;;;;;36.63;13.07;;;;;;;7.15;96.61;101188.50;5031610;28;20033;-43
2022/02/03 14:43:21;;;;;;;26.67;11.32;;;;;;;7.20;96.11;101184.38;5029992;28;20036;-44
2022/02/03 14:45:47;;;;;;;28.13;9.57;;;;;;;7.20;95.83;101181.69;5032204;28;20389;-46
2022/02/03 14:48:15;;;;;;;23.10;9.73;;;;;;;7.21;95.82;101182.53;5031336;28;20029;-44
2022/02/03 14:50:42;;;;;;;31.17;11.18;;;;;;;7.31;95.84;101180.63;5031496;28;20107;-43
2022/02/03 14:53:14;;;;;;;38.15;9.95;;;;;;;7.23;95.57;101176.03;5031666;28;20033;-45
2022/02/03 14:58:27;;;;;;;24.10;9.07;;;;;;;7.14;95.64;101185.00;5031407;28;20106;-44
2022/02/03 15:00:53;;;;;;;23.30;10.07;;;;;;;7.12;95.68;101183.47;5031325;28;20473;-43
2022/02/03 15:03:20;;;;;;;31.42;10.25;;;;;;;7.08;95.60;101179.38;5010531;28;20051;-42
2022/02/03 15:05:46;;;;;;;27.20;9.48;;;;;;;7.09;95.89;101170.38;5022757;28;20033;-44
2022/02/03 15:08:20;;;;;;;28.38;8.93;;;;;;;7.03;95.68;101174.50;5031421;28;20105;-44
2022/02/03 15:11:08;;;;;;;31.05;9.25;;;;;;;7.02;96.22;101164.78;5031474;28;20481;-44
2022/02/03 15:13:46;;;;;;;24.98;10.10;;;;;;;7.07;96.23;101167.84;5031504;28;20037;-43
2022/02/03 15:16:13;;;;;;;25.35;9.15;;;;;;;7.02;96.01;101165.63;5031706;28;20492;-42
2022/02/03 15:18:38;;;;;;;26.00;9.20;;;;;;;7.01;96.59;101171.13;5026397;28;20067;-45
2022/02/03 15:21:05;;;;;;;32.88;10.10;;;;;;;7.02;96.92;101165.63;5029069;28;20045;-44
2022/02/03 15:23:30;;;;;;;24.48;9.88;;;;;;;6.99;97.12;101175.78;5026582;28;20034;-43
2022/02/03 15:25:56;;;;;;;29.38;9.70;;;;;;;6.98;97.30;101180.31;5027630;28;20038;-44
2022/02/03 15:28:23;;;;;;;31.70;10.20;;;;;;;7.02;97.52;101170.97;5027965;28;20033;-44
2022/02/03 15:30:48;;;;;;;21.83;9.18;;;;;;;6.99;97.15;101165.91;5028719;28;20408;-43
2022/02/03 15:33:14;;;;;;;21.52;9.18;;;;;;;7.00;97.42;101164.06;5028735;28;20046;-44
2022/02/03 15:35:45;;;;;;;18.83;8.73;;;;;;;6.98;97.25;101158.91;5029454;28;20026;-42
2022/02/03 15:38:15;;;;;;;23.63;9.20;;;;;;;6.99;96.79;101162.41;5028315;28;20064;-44
2022/02/03 15:40:40;;;;;;;22.88;8.88;;;;;;;6.98;96.99;101164.25;5028469;28;20021;-44
2022/02/03 15:43:25;;;;;;;35.08;10.85;;;;;;;7.00;96.87;101166.75;5030883;28;20409;-45
2022/02/03 15:45:54;;;;;;;20.90;9.75;;;;;;;7.03;97.00;101172.66;5030625;28;20431;-43
2022/02/03 16:04:10;;;;;;;;;;;;;;;7.04;96.55;101165.47;5029899;28;20067;-43
2022/02/03 16:17:26;;;;;;;25.15;7.65;;;;;;;7.06;96.59;101163.50;5028388;28;20099;-44
2022/02/03 16:20:00;;;;;;;17.92;7.95;;;;;;;7.05;96.12;101164.47;5025317;28;20104;-44
2022/02/03 16:25:07;;;;;;;20.67;6.00;;;;;;;7.02;96.17;101164.78;5029314;28;20075;-44
2022/02/03 16:52:33;;;;;;;26.83;6.57;;;;;;;6.97;96.91;101154.53;5026922;28;20110;-44
2022/02/03 16:55:01;;;;;;;23.75;6.57;;;;;;;6.96;97.09;101149.34;5031263;28;20033;-46
2022/02/03 16:57:27;;;;;;;16.10;6.88;;;;;;;6.91;97.09;101148.94;5031090;28;20018;-43
2022/02/03 17:00:04;;;;;;;21.23;6.25;;;;;;;6.88;97.25;101149.25;5030760;28;20030;-44
2022/02/03 17:02:30;;;;;;;17.75;5.70;;;;;;;6.85;97.04;101147.72;5030620;28;20512;-45
2022/02/03 17:04:57;;;;;;;19.35;7.13;;;;;;;6.86;97.48;101143.19;5028950;28;20057;-44
2022/02/03 17:07:22;;;;;;;14.65;5.75;;;;;;;6.84;97.41;101148.69;5026062;28;20079;-44
2022/02/03 17:09:49;;;;;;;22.02;5.70;;;;;;;6.85;97.60;101142.38;5030587;28;20469;-45
2022/02/03 17:12:15;;;;;;;19.88;6.10;;;;;;;6.85;97.42;101142.38;5030788;28;20034;-45
2022/02/03 17:14:41;;;;;;;12.85;4.90;;;;;;;6.84;97.28;101148.69;5030578;28;20125;-44
2022/02/03 17:17:06;;;;;;;21.35;6.68;;;;;;;6.85;97.39;101142.38;5029279;28;20426;-43
2022/02/03 17:19:32;;;;;;;16.00;5.55;;;;;;;6.88;97.66;101142.06;5030292;28;20119;-44
2022/02/03 17:21:57;;;;;;;21.48;5.03;;;;;;;6.88;97.30;101141.22;5028162;28;20037;-44
2022/02/03 17:24:22;;;;;;;16.02;4.55;;;;;;;6.86;97.42;101138.69;5030274;28;20067;-44
2022/02/03 17:27:36;;;;;;;14.32;5.43;;;;;;;6.85;97.33;101138.84;5030184;28;20087;-45
2022/02/03 17:52:18;;;;;;;16.08;5.15;;;;;;;6.94;97.14;101151.31;5030255;28;20457;-44
2022/02/03 18:08:35;;;;;;;24.52;7.10;;;;;;;6.94;95.92;101151.31;5028949;28;20555;-47
2022/02/03 18:11:17;;;;;;;11.68;4.32;;;;;;;6.95;95.70;101155.66;5024488;28;20163;-47
2022/02/03 18:28:02;;;;;;;12.75;3.78;;;;;;;7.01;94.71;101161.25;5029200;28;20048;-45
2022/02/03 18:30:02;;;;;;;32.72;4.40;;;;;;;7.03;94.77;101163.81;5028788;28;20045;-49
2022/02/03 18:35:46;;;;;;;12.10;3.85;;;;;;;7.03;94.80;101169.16;5027305;28;20052;-47
2022/02/03 18:53:57;;;;;;;15.95;3.55;;;;;;;7.10;94.11;101156.00;5030754;28;20037;-48
2022/02/03 18:59:23;;;;;;;10.75;2.85;;;;;;;7.08;93.65;101150.78;5027677;28;20048;-48
2022/02/03 19:10:31;;;;;;;19.85;2.38;;;;;;;7.14;92.58;101142.16;5028754;28;20052;-47
2022/02/03 19:15:37;;;;;;;13.68;2.92;;;;;;;7.11;92.23;101134.44;5023027;28;20523;-46
2022/02/03 19:26:32;;;;;;;16.38;2.78;;;;;;;7.09;91.18;101122.22;5026163;28;20167;-48
2022/02/03 19:59:58;;;;;;;13.98;3.95;;;;;;;6.76;91.23;101133.38;5029893;28;20048;-48
2022/02/03 20:01:43;;;;;;;12.93;3.28;;;;;;;6.80;90.63;101139.28;5031096;28;20064;-50
2022/02/03 20:11:51;;;;;;;9.80;1.98;;;;;;;6.96;89.23;101127.94;5032470;28;20037;-48
2022/02/03 20:14:19;;;;;;;13.20;2.08;;;;;;;6.98;89.16;101125.94;5030716;28;20080;-47
2022/02/03 20:16:45;;;;;;;10.50;2.03;;;;;;;7.00;88.70;101134.66;5031489;28;20563;-47
2022/02/03 20:19:12;;;;;;;10.68;1.90;;;;;;;7.02;88.81;101135.34;5030396;28;20028;-49
2022/02/03 20:21:40;;;;;;;14.43;2.38;;;;;;;7.03;89.02;101137.03;5031847;28;20029;-47
2022/02/03 20:24:06;;;;;;;13.70;2.05;;;;;;;7.02;89.18;101132.66;5031706;28;20029;-46
2022/02/03 20:26:34;;;;;;;9.32;2.22;;;;;;;7.02;89.00;101117.44;5030141;28;20449;-49
2022/02/03 20:28:59;;;;;;;14.07;2.17;;;;;;;7.05;89.33;101116.31;5031910;28;20025;-47
2022/02/03 20:31:24;;;;;;;11.77;2.25;;;;;;;7.05;89.56;101113.63;5030001;28;20029;-46
2022/02/03 20:33:50;;;;;;;5.47;1.95;;;;;;;7.05;89.21;101116.31;5031671;28;20067;-48
2022/02/03 20:36:15;;;;;;;10.80;2.10;;;;;;;7.08;88.88;101121.34;5031234;28;20493;-47
2022/02/03 20:38:42;;;;;;;11.35;3.25;;;;;;;7.08;89.27;101116.00;5031391;28;20111;-46
2022/02/03 20:41:07;;;;;;;12.68;2.65;;;;;;;7.09;89.39;101123.03;5031148;28;20155;-46
2022/02/03 20:43:32;;;;;;;13.30;2.80;;;;;;;7.09;88.97;101122.22;5030467;28;20022;-46
2022/02/03 20:46:01;;;;;;;17.38;2.65;;;;;;;7.09;88.89;101112.34;5031341;28;20025;-45
2022/02/03 20:48:29;;;;;;;15.45;3.08;;;;;;;7.12;88.37;101117.38;5026487;28;20038;-46
2022/02/03 20:50:55;;;;;;;6.75;2.40;;;;;;;7.12;88.14;101106.66;5026435;28;20052;-45
2022/02/03 20:53:21;;;;;;;13.75;2.63;;;;;;;7.14;87.80;101109.22;5015677;28;20124;-48
2022/02/03 20:55:47;;;;;;;14.80;2.90;;;;;;;7.16;87.78;101107.19;5011214;28;20042;-46
2022/02/03 20:58:16;;;;;;;7.13;2.45;;;;;;;7.18;87.07;101099.88;5029826;28;20462;-48
2022/02/03 21:00:47;;;;;;;5.68;2.55;;;;;;;7.20;87.35;101103.22;5031537;28;20037;-47
2022/02/03 21:05:44;;;;;;;8.40;2.30;;;;;;;7.24;85.92;101101.91;5031120;28;20496;-50
2022/02/03 21:08:10;;;;;;;6.13;1.60;;;;;;;7.25;85.55;101101.78;5020554;28;20117;-48
2022/02/03 21:10:35;;;;;;;8.63;2.22;;;;;;;7.30;84.37;101108.50;5031662;28;20090;-49
2022/02/03 21:13:01;;;;;;;6.00;2.13;;;;;;;7.34;84.14;101109.88;5025190;28;20025;-48
2022/02/03 21:15:35;;;;;;;10.88;1.90;;;;;;;7.34;83.86;101097.31;5033564;28;20077;-46
2022/02/03 21:18:05;;;;;;;7.65;1.70;;;;;;;7.35;83.99;101100.88;5029052;28;20045;-51
2022/02/03 21:20:31;;;;;;;9.38;1.77;;;;;;;7.37;83.76;101109.56;5019405;28;20028;-48
2022/02/03 21:22:58;;;;;;;9.85;1.88;;;;;;;7.38;83.38;101111.25;5032473;28;20087;-47
2022/02/03 21:25:36;;;;;;;3.55;1.65;;;;;;;7.41;83.58;101097.56;5034369;28;20466;-46
2022/02/03 21:28:09;;;;;;;6.30;2.15;;;;;;;7.39;83.62;101096.88;5044677;28;20086;-46
2022/02/03 21:30:34;;;;;;;7.53;2.17;;;;;;;7.41;83.71;101105.59;5033134;28;20065;-47
2022/02/03 21:33:00;;;;;;;7.22;2.15;;;;;;;7.42;83.16;101096.56;5033362;28;20052;-47
2022/02/03 21:35:27;;;;;;;6.28;1.77;;;;;;;7.42;83.32;101096.56;5032356;28;20482;-47
2022/02/03 21:37:52;;;;;;;8.82;1.90;;;;;;;7.42;83.40;101093.88;5033258;28;20036;-50
2022/02/03 21:40:19;;;;;;;7.93;2.17;;;;;;;7.40;83.54;101091.38;5032806;28;20025;-49